• Join FlightAware (Why Join?)
  • Login
  • US Flag 
10:38AM EDT


 

Airport Tracker/Info


-or-


 

Live Flight TrackerFlight Track Log ✈ UPS1337 ✈ 03-Jun-2014 ✈ KPIE - KSDF

Flight Track Log - Related Links

Times and Time Zones

All times are in EDT time to prevent confusion due to time zone crossing. See the UPS1337 flight status page for this flight to view local times or setup timezone preferences in your user account.

Time Position Orientation Groundspeed Altitude Reporting Facility
EDT Latitude Longitude Course Direction KTS MPH feet Rate Location/Type
09:53PM 27.9000 -82.6833 180° South 999 1150 500  Level Tampa TRACON
09:53PM 27.8667 -82.6833 180° South 232 267 1,900 1,140 Climbing Tampa TRACON
09:54PM 27.8333 -82.7167 221° Southwest 251 289 2,400 2,520 Climbing Tampa TRACON
09:55PM 27.8500 -82.8000 283° West 287 330 6,800 3,300 Climbing Tampa TRACON
09:57PM 27.9469 -82.8247 347° North 267 307 11,200 2,340 Climbing Miami Center
10:03PM 28.6503 -82.9392 346° North 462 532 25,200 2,160 Climbing FlightAware ADS-B (KMCO)
10:04PM 28.7819 -82.9767 346° North 462 532 26,900 1,740 Climbing Miami Center
10:05PM 28.9158 -83.0158 346° North 456 525 28,900 1,920 Climbing Jacksonville Center
10:06PM 29.0431 -83.0517 346° North 462 532 30,800 1,740 Climbing Jacksonville Center
10:07PM 29.1661 -83.0900 345° North 467 537 32,400 1,500 Climbing Jacksonville Center
10:08PM 29.2892 -83.1258 346° North 467 537 33,800 720 Climbing Jacksonville Center
10:09PM 29.4167 -83.1619 346° North 462 532 33,900  Climbing Jacksonville Center
10:15PM 30.2230 -83.3952 346° North 449 517 34,000  Climbing FlightAware ADS-B (KMCO)
10:16PM 30.2822 -83.4144 346° North 451 519 33,900 -120 Descending Jacksonville Center
10:17PM 30.4031 -83.4489 346° North 446 513 33,900  Level Jacksonville Center
10:18PM 30.5261 -83.4858 346° North 446 513 33,900  Level Jacksonville Center
10:19PM 30.6492 -83.5203 346° North 451 519 33,900  Level Jacksonville Center
10:20PM 30.7722 -83.5575 345° North 451 519 33,900  Level Jacksonville Center
10:21PM 30.8806 -83.5897 346° North 451 519 34,000  Climbing Jacksonville Center
10:22PM 31.0014 -83.6269 345° North 445 512 34,000  Level Jacksonville Center
10:24PM 31.2411 -83.7014 345° North 445 512 34,000  Level Atlanta Center
10:25PM 31.3600 -83.7372 346° North 445 512 34,000  Level Atlanta Center
10:26PM 31.4792 -83.7736 345° North 445 512 34,000  Level Atlanta Center
10:27PM 31.5731 -83.8050 344° North 440 506 34,000  Level Atlanta Center
10:28PM 31.7194 -83.8461 347° North 435 501 34,000  Level Atlanta Center
10:29PM 31.8300 -83.8825 344° North 451 519 34,000  Level Atlanta Center
10:30PM 31.9447 -83.9139 347° North 446 513 34,000  Level Atlanta Center
10:31PM 32.0617 -83.9481 346° North 436 502 34,000  Level Atlanta Center
10:32PM 32.1786 -83.9850 345° North 431 496 34,000  Level Atlanta Center
10:33PM 32.2956 -84.0192 346° North 436 502 34,000  Level Atlanta Center
10:34PM 32.4167 -84.0389 352° North 436 502 34,000  Level Atlanta Center
10:35PM 32.5336 -84.0586 352° North 431 496 34,000  Level Atlanta Center
10:36PM 32.6525 -84.0783 352° North 425 489 34,000  Level Atlanta Center
10:37PM 32.7694 -84.0981 352° North 425 489 34,000  Level Atlanta Center
10:38PM 32.8883 -84.1181 352° North 430 495 34,000  Level Atlanta Center
10:39PM 33.0072 -84.1356 353° North 430 495 34,000  Level Atlanta Center
10:40PM 33.1264 -84.1556 352° North 430 495 34,000  Level Atlanta Center
10:41PM 33.2431 -84.1756 352° North 425 489 34,000  Level Atlanta Center
10:42PM 33.3619 -84.1956 352° North 425 489 34,000  Level Atlanta Center
10:47PM 34.0148 -84.3036 352° North 425 489 34,000  Level FlightAware ADS-B (KDZJ)
10:48PM 34.1078 -84.3194 352° North 435 501 34,000  Level FlightAware ADS-B (KDZJ)
10:48PM 34.1871 -84.3331 352° North 435 501 34,000 -540 Level FlightAware ADS-B (KDZJ)
10:49PM 34.2680 -84.3469 352° North 438 504 33,300 -1,140 Descending FlightAware ADS-B (KDZJ)
10:50PM 34.3505 -84.3610 352° North 440 506 32,500 -1,020 Descending FlightAware ADS-B (KDZJ)
10:50PM 34.4297 -84.3746 352° North 441 507 32,000 -420 Descending FlightAware ADS-B (KDZJ)
10:51PM 34.5115 -84.3886 352° North 442 509 32,000  Level FlightAware ADS-B (KDZJ)
10:52PM 34.5919 -84.4025 352° North 443 510 32,000  Level FlightAware ADS-B (KDZJ)
10:52PM 34.6719 -84.4163 352° North 436 502 32,000  Level FlightAware ADS-B (KDZJ)
10:53PM 34.7549 -84.4308 352° North 438 504 32,000  Level FlightAware ADS-B (KDZJ)
10:54PM 34.8377 -84.4451 352° North 442 509 32,000  Level FlightAware ADS-B (KDZJ)
10:54PM 34.9179 -84.4590 352° North 442 509 32,000  Level FlightAware ADS-B (KDZJ)
10:55PM 34.9999 -84.4734 352° North 441 507 32,000  Level FlightAware ADS-B (KDZJ)
10:56PM 35.0765 -84.4868 352° North 442 509 32,000  Level FlightAware ADS-B (KDZJ)
10:56PM 35.1583 -84.5011 352° North 441 507 32,000  Level FlightAware ADS-B (KDZJ)
10:57PM 35.2263 -84.5129 352° North 441 507 32,000  Level FlightAware ADS-B (KDZJ)
10:58PM 35.3156 -84.5286 352° North 436 502 32,000  Level FlightAware ADS-B (KDZJ)
10:59PM 35.4825 -84.5581 352° North 437 503 32,000 -360 Level FlightAware ADS-B (KDZJ)
11:04PM 34.9447 -84.4636 352° North 453 521 30,100 -360 Descending FlightAware ADS-B (KMDQ)
11:05PM 36.2061 -84.6872 352° North 451 519 30,000 -60 Descending Indianapolis Center
11:06PM 36.3300 -84.7097 352° North 451 519 30,000 -720 Level Indianapolis Center
11:12PM 37.0214 -84.8355 352° North 425 489 25,300 -1,020 Descending FlightAware ADS-B (KBRY)
11:13PM 37.1394 -84.8572 352° North 418 481 23,500 -1,920 Descending FlightAware ADS-B (KBRY)
11:14PM 37.2537 -84.8780 352° North 396 456 21,500 -2,460 Descending FlightAware ADS-B (KBRY)
11:15PM 37.3629 -84.8985 351° North 387 445 18,600 -2,820 Descending FlightAware ADS-B (KBRY)
11:16PM 37.4773 -84.9194 352° North 374 430 15,600 -2,700 Descending FlightAware ADS-B (KBRY)
11:17PM 37.5478 -84.9326 351° North 365 420 13,800 -2,400 Descending FlightAware ADS-B (KBRY)
11:18PM 37.6665 -84.9704 321° Northwest 337 388 10,800 -1,680 Descending FlightAware ADS-B (KBRY)
11:19PM 37.7351 -85.0618 312° West 334 384 10,000 -600 Descending FlightAware ADS-B (KBRY)
11:20PM 37.7749 -85.1557 289° West 280 322 9,600 -1,020 Descending FlightAware ADS-B (KBRY)
11:21PM 37.7992 -85.2479 288° West 275 316 8,000 -1,560 Descending FlightAware ADS-B (KBRY)
11:22PM 37.8234 -85.3395 289° West 269 310 6,500 -1,260 Descending FlightAware ADS-B (KBRY)
11:23PM 37.8465 -85.4268 290° West 265 305 5,500 -1,140 Descending FlightAware ADS-B (KBRY)
11:24PM 37.8909 -85.5031 308° West 266 306 4,300 -1,080 Descending FlightAware ADS-B (KBRY)
11:25PM 37.9360 -85.5754 308° West 263 303 3,400 -660 Descending FlightAware ADS-B (KBRY)
11:26PM 37.9803 -85.6461 309° West 225 259 3,000 -240 Descending FlightAware ADS-B (KBRY)
11:27PM 38.0207 -85.6946 343° North 205 236 3,000 -420 Level FlightAware ADS-B (KBRY)
11:28PM 38.0667 -85.7000 208° Southwest 197 227 2,300 -960 Descending Louisville TRACON
11:28PM 38.0863 -85.7158 345° North 168 193 1,800 -780 Descending FlightAware ADS-B (KBRY)
11:29PM 38.1004 -85.7203 345° North 139 160 1,300 -660 Descending FlightAware ADS-B (KBRY)
11:30PM 38.1741 -85.7365 345° North  Level Estimated
11:33PM 38.1667 -85.7333 208° Southwest  Level FlightAware Approximate
11:37PM 38.1741 -85.7365 208° Southwest  Level Estimated
11:38PM 38.1741 -85.7365 208° Southwest  Level Estimated